sensor_id;sensor_type;location;lat;lon;timestamp;P1;durP1;ratioP1;P2;durP2;ratioP2
15356;SDS011;7778;48.792;9.260;2022-07-29T00:02:09;6.55;;;4.38;;
15356;SDS011;7778;48.792;9.260;2022-07-29T00:04:55;5.30;;;3.65;;
15356;SDS011;7778;48.792;9.260;2022-07-29T00:07:42;8.13;;;4.38;;
15356;SDS011;7778;48.792;9.260;2022-07-29T00:10:27;4.28;;;3.47;;
15356;SDS011;7778;48.792;9.260;2022-07-29T00:13:13;5.03;;;3.25;;
15356;SDS011;7778;48.792;9.260;2022-07-29T00:15:59;5.90;;;3.80;;
15356;SDS011;7778;48.792;9.260;2022-07-29T00:18:44;4.10;;;3.70;;
15356;SDS011;7778;48.792;9.260;2022-07-29T00:21:30;5.90;;;4.00;;
15356;SDS011;7778;48.792;9.260;2022-07-29T00:24:17;5.45;;;3.80;;
15356;SDS011;7778;48.792;9.260;2022-07-29T00:27:03;4.70;;;3.90;;
15356;SDS011;7778;48.792;9.260;2022-07-29T00:29:49;6.60;;;3.60;;
15356;SDS011;7778;48.792;9.260;2022-07-29T00:32:34;3.88;;;3.45;;
15356;SDS011;7778;48.792;9.260;2022-07-29T00:35:20;6.15;;;3.83;;
15356;SDS011;7778;48.792;9.260;2022-07-29T00:38:24;6.75;;;3.70;;
15356;SDS011;7778;48.792;9.260;2022-07-29T00:41:11;6.45;;;3.35;;
15356;SDS011;7778;48.792;9.260;2022-07-29T00:43:57;4.55;;;3.38;;
15356;SDS011;7778;48.792;9.260;2022-07-29T00:46:42;5.20;;;3.75;;
15356;SDS011;7778;48.792;9.260;2022-07-29T00:49:28;7.78;;;3.85;;
15356;SDS011;7778;48.792;9.260;2022-07-29T00:52:14;6.43;;;3.97;;
15356;SDS011;7778;48.792;9.260;2022-07-29T00:55:00;6.35;;;3.70;;
15356;SDS011;7778;48.792;9.260;2022-07-29T00:57:47;6.20;;;4.22;;
15356;SDS011;7778;48.792;9.260;2022-07-29T01:00:33;12.35;;;6.18;;
15356;SDS011;7778;48.792;9.260;2022-07-29T01:03:20;7.78;;;4.63;;
15356;SDS011;7778;48.792;9.260;2022-07-29T01:06:06;5.18;;;4.10;;
15356;SDS011;7778;48.792;9.260;2022-07-29T01:08:52;6.53;;;4.85;;
15356;SDS011;7778;48.792;9.260;2022-07-29T01:11:37;5.28;;;3.80;;
15356;SDS011;7778;48.792;9.260;2022-07-29T01:14:25;5.50;;;3.95;;
15356;SDS011;7778;48.792;9.260;2022-07-29T01:17:13;4.80;;;3.70;;
15356;SDS011;7778;48.792;9.260;2022-07-29T01:20:07;4.60;;;3.50;;
15356;SDS011;7778;48.792;9.260;2022-07-29T01:23:11;5.07;;;4.38;;
15356;SDS011;7778;48.792;9.260;2022-07-29T01:26:22;4.68;;;4.03;;
15356;SDS011;7778;48.792;9.260;2022-07-29T01:29:23;5.43;;;4.00;;
15356;SDS011;7778;48.792;9.260;2022-07-29T01:32:12;4.43;;;4.03;;
15356;SDS011;7778;48.792;9.260;2022-07-29T01:35:03;5.13;;;3.42;;
15356;SDS011;7778;48.792;9.260;2022-07-29T01:37:55;4.40;;;3.47;;
15356;SDS011;7778;48.792;9.260;2022-07-29T01:40:48;4.68;;;3.65;;
15356;SDS011;7778;48.792;9.260;2022-07-29T01:43:41;3.53;;;3.20;;
15356;SDS011;7778;48.792;9.260;2022-07-29T01:46:35;5.50;;;3.95;;
15356;SDS011;7778;48.792;9.260;2022-07-29T01:49:24;6.03;;;3.97;;
15356;SDS011;7778;48.792;9.260;2022-07-29T01:52:13;4.72;;;3.65;;
15356;SDS011;7778;48.792;9.260;2022-07-29T01:55:07;9.73;;;4.25;;
15356;SDS011;7778;48.792;9.260;2022-07-29T01:58:03;6.38;;;4.13;;
15356;SDS011;7778;48.792;9.260;2022-07-29T02:00:50;4.18;;;3.15;;
15356;SDS011;7778;48.792;9.260;2022-07-29T02:03:39;6.93;;;3.80;;
15356;SDS011;7778;48.792;9.260;2022-07-29T02:06:28;5.32;;;3.50;;
15356;SDS011;7778;48.792;9.260;2022-07-29T02:09:17;7.00;;;3.97;;
15356;SDS011;7778;48.792;9.260;2022-07-29T02:12:06;4.65;;;4.03;;
15356;SDS011;7778;48.792;9.260;2022-07-29T02:14:53;6.00;;;3.90;;
15356;SDS011;7778;48.792;9.260;2022-07-29T02:17:40;6.13;;;4.20;;
15356;SDS011;7778;48.792;9.260;2022-07-29T02:20:32;4.72;;;3.67;;
15356;SDS011;7778;48.792;9.260;2022-07-29T02:23:20;4.93;;;3.60;;
15356;SDS011;7778;48.792;9.260;2022-07-29T02:26:08;7.70;;;3.83;;
15356;SDS011;7778;48.792;9.260;2022-07-29T02:28:55;4.47;;;3.50;;
15356;SDS011;7778;48.792;9.260;2022-07-29T02:31:42;3.88;;;3.40;;
15356;SDS011;7778;48.792;9.260;2022-07-29T02:34:31;4.68;;;3.38;;
15356;SDS011;7778;48.792;9.260;2022-07-29T02:37:20;4.35;;;3.35;;
15356;SDS011;7778;48.792;9.260;2022-07-29T02:40:08;4.80;;;3.53;;
15356;SDS011;7778;48.792;9.260;2022-07-29T02:42:56;6.22;;;3.70;;
15356;SDS011;7778;48.792;9.260;2022-07-29T02:45:42;3.95;;;3.35;;
15356;SDS011;7778;48.792;9.260;2022-07-29T02:48:31;8.27;;;3.78;;
15356;SDS011;7778;48.792;9.260;2022-07-29T02:51:23;4.30;;;3.40;;
15356;SDS011;7778;48.792;9.260;2022-07-29T02:54:18;4.47;;;3.30;;
15356;SDS011;7778;48.792;9.260;2022-07-29T02:57:10;3.67;;;3.05;;
15356;SDS011;7778;48.792;9.260;2022-07-29T03:00:05;4.75;;;3.42;;
15356;SDS011;7778;48.792;9.260;2022-07-29T03:02:54;3.60;;;3.25;;
15356;SDS011;7778;48.792;9.260;2022-07-29T03:05:43;4.55;;;3.10;;
15356;SDS011;7778;48.792;9.260;2022-07-29T03:08:29;4.70;;;3.10;;
15356;SDS011;7778;48.792;9.260;2022-07-29T03:11:17;7.03;;;3.42;;
15356;SDS011;7778;48.792;9.260;2022-07-29T03:14:04;4.00;;;3.40;;
15356;SDS011;7778;48.792;9.260;2022-07-29T03:16:51;5.22;;;3.72;;
15356;SDS011;7778;48.792;9.260;2022-07-29T03:19:37;5.57;;;3.33;;
15356;SDS011;7778;48.792;9.260;2022-07-29T03:22:24;5.82;;;3.28;;
15356;SDS011;7778;48.792;9.260;2022-07-29T03:25:10;4.75;;;3.20;;
15356;SDS011;7778;48.792;9.260;2022-07-29T03:27:59;4.22;;;2.80;;
15356;SDS011;7778;48.792;9.260;2022-07-29T03:30:45;6.43;;;3.38;;
15356;SDS011;7778;48.792;9.260;2022-07-29T03:33:31;4.88;;;3.53;;
15356;SDS011;7778;48.792;9.260;2022-07-29T03:36:17;4.03;;;3.30;;
15356;SDS011;7778;48.792;9.260;2022-07-29T03:39:02;3.72;;;3.10;;
15356;SDS011;7778;48.792;9.260;2022-07-29T03:41:51;3.90;;;3.20;;
15356;SDS011;7778;48.792;9.260;2022-07-29T03:44:42;4.90;;;3.28;;
15356;SDS011;7778;48.792;9.260;2022-07-29T03:47:33;4.88;;;3.35;;
15356;SDS011;7778;48.792;9.260;2022-07-29T03:50:24;3.53;;;3.20;;
15356;SDS011;7778;48.792;9.260;2022-07-29T03:53:10;4.28;;;3.15;;
15356;SDS011;7778;48.792;9.260;2022-07-29T03:55:57;5.13;;;3.13;;
15356;SDS011;7778;48.792;9.260;2022-07-29T03:58:46;5.03;;;3.28;;
15356;SDS011;7778;48.792;9.260;2022-07-29T04:01:34;3.40;;;3.10;;
15356;SDS011;7778;48.792;9.260;2022-07-29T04:04:20;4.43;;;3.28;;
15356;SDS011;7778;48.792;9.260;2022-07-29T04:07:06;3.30;;;2.80;;
15356;SDS011;7778;48.792;9.260;2022-07-29T04:09:56;4.63;;;3.47;;
15356;SDS011;7778;48.792;9.260;2022-07-29T04:12:42;5.47;;;3.20;;
15356;SDS011;7778;48.792;9.260;2022-07-29T04:15:28;6.53;;;3.25;;
15356;SDS011;7778;48.792;9.260;2022-07-29T04:18:15;5.10;;;3.15;;
15356;SDS011;7778;48.792;9.260;2022-07-29T04:21:01;3.83;;;3.08;;
15356;SDS011;7778;48.792;9.260;2022-07-29T04:23:47;4.43;;;3.53;;
15356;SDS011;7778;48.792;9.260;2022-07-29T04:26:34;5.05;;;3.60;;
15356;SDS011;7778;48.792;9.260;2022-07-29T04:29:20;4.68;;;3.28;;
15356;SDS011;7778;48.792;9.260;2022-07-29T04:32:05;3.55;;;3.25;;
15356;SDS011;7778;48.792;9.260;2022-07-29T04:34:52;7.45;;;3.50;;
15356;SDS011;7778;48.792;9.260;2022-07-29T04:37:38;7.15;;;3.63;;
15356;SDS011;7778;48.792;9.260;2022-07-29T04:40:24;3.92;;;3.00;;
15356;SDS011;7778;48.792;9.260;2022-07-29T04:43:10;6.22;;;2.83;;
15356;SDS011;7778;48.792;9.260;2022-07-29T04:45:55;3.15;;;2.85;;
15356;SDS011;7778;48.792;9.260;2022-07-29T04:48:41;4.78;;;3.10;;
15356;SDS011;7778;48.792;9.260;2022-07-29T04:51:28;5.78;;;3.05;;
15356;SDS011;7778;48.792;9.260;2022-07-29T04:54:14;4.20;;;3.25;;
15356;SDS011;7778;48.792;9.260;2022-07-29T04:57:00;4.47;;;3.20;;
15356;SDS011;7778;48.792;9.260;2022-07-29T04:59:45;3.50;;;3.20;;
15356;SDS011;7778;48.792;9.260;2022-07-29T05:02:32;3.92;;;3.05;;
15356;SDS011;7778;48.792;9.260;2022-07-29T05:05:17;5.40;;;3.28;;
15356;SDS011;7778;48.792;9.260;2022-07-29T05:08:05;3.72;;;3.35;;
15356;SDS011;7778;48.792;9.260;2022-07-29T05:10:51;5.22;;;3.53;;
15356;SDS011;7778;48.792;9.260;2022-07-29T05:13:37;6.22;;;3.80;;
15356;SDS011;7778;48.792;9.260;2022-07-29T05:16:22;6.32;;;3.45;;
15356;SDS011;7778;48.792;9.260;2022-07-29T05:19:08;6.03;;;2.97;;
15356;SDS011;7778;48.792;9.260;2022-07-29T05:21:54;3.80;;;2.50;;
15356;SDS011;7778;48.792;9.260;2022-07-29T05:24:41;3.55;;;2.38;;
15356;SDS011;7778;48.792;9.260;2022-07-29T05:27:26;3.85;;;2.83;;
15356;SDS011;7778;48.792;9.260;2022-07-29T05:30:12;2.95;;;2.35;;
15356;SDS011;7778;48.792;9.260;2022-07-29T05:32:58;2.95;;;2.33;;
15356;SDS011;7778;48.792;9.260;2022-07-29T05:35:44;3.58;;;2.67;;
15356;SDS011;7778;48.792;9.260;2022-07-29T05:38:30;3.83;;;2.70;;
15356;SDS011;7778;48.792;9.260;2022-07-29T05:41:17;3.85;;;2.88;;
15356;SDS011;7778;48.792;9.260;2022-07-29T05:44:03;3.72;;;2.85;;
15356;SDS011;7778;48.792;9.260;2022-07-29T05:46:48;2.53;;;2.13;;
15356;SDS011;7778;48.792;9.260;2022-07-29T05:49:34;2.78;;;2.35;;
15356;SDS011;7778;48.792;9.260;2022-07-29T05:52:20;4.00;;;3.00;;
15356;SDS011;7778;48.792;9.260;2022-07-29T05:55:06;4.10;;;2.45;;
15356;SDS011;7778;48.792;9.260;2022-07-29T05:57:54;3.47;;;2.22;;
15356;SDS011;7778;48.792;9.260;2022-07-29T06:00:40;2.33;;;2.13;;
15356;SDS011;7778;48.792;9.260;2022-07-29T06:03:27;1.85;;;1.75;;
15356;SDS011;7778;48.792;9.260;2022-07-29T06:06:13;2.35;;;2.15;;
15356;SDS011;7778;48.792;9.260;2022-07-29T06:08:59;3.97;;;2.42;;
15356;SDS011;7778;48.792;9.260;2022-07-29T06:11:45;2.67;;;2.45;;
15356;SDS011;7778;48.792;9.260;2022-07-29T06:14:32;2.40;;;2.15;;
15356;SDS011;7778;48.792;9.260;2022-07-29T06:17:18;2.78;;;2.20;;
15356;SDS011;7778;48.792;9.260;2022-07-29T06:20:05;3.65;;;2.22;;
15356;SDS011;7778;48.792;9.260;2022-07-29T06:22:51;3.58;;;2.22;;
15356;SDS011;7778;48.792;9.260;2022-07-29T06:25:37;2.10;;;1.83;;
15356;SDS011;7778;48.792;9.260;2022-07-29T06:28:25;3.00;;;2.10;;
15356;SDS011;7778;48.792;9.260;2022-07-29T06:31:13;2.92;;;2.30;;
15356;SDS011;7778;48.792;9.260;2022-07-29T06:33:58;3.10;;;1.85;;
15356;SDS011;7778;48.792;9.260;2022-07-29T06:36:44;2.65;;;2.45;;
15356;SDS011;7778;48.792;9.260;2022-07-29T06:39:30;2.88;;;2.40;;
15356;SDS011;7778;48.792;9.260;2022-07-29T06:42:15;3.90;;;2.08;;
15356;SDS011;7778;48.792;9.260;2022-07-29T06:45:01;4.65;;;2.13;;
15356;SDS011;7778;48.792;9.260;2022-07-29T06:47:48;2.42;;;1.90;;
15356;SDS011;7778;48.792;9.260;2022-07-29T06:50:34;2.30;;;2.10;;
15356;SDS011;7778;48.792;9.260;2022-07-29T06:53:20;4.25;;;1.92;;
15356;SDS011;7778;48.792;9.260;2022-07-29T06:56:06;4.38;;;2.17;;
15356;SDS011;7778;48.792;9.260;2022-07-29T06:58:53;2.35;;;1.75;;
15356;SDS011;7778;48.792;9.260;2022-07-29T07:01:39;2.28;;;2.00;;
15356;SDS011;7778;48.792;9.260;2022-07-29T07:04:28;3.85;;;2.22;;
15356;SDS011;7778;48.792;9.260;2022-07-29T07:07:14;2.38;;;2.17;;
15356;SDS011;7778;48.792;9.260;2022-07-29T07:10:00;3.22;;;2.33;;
15356;SDS011;7778;48.792;9.260;2022-07-29T07:12:46;7.10;;;2.30;;
15356;SDS011;7778;48.792;9.260;2022-07-29T07:15:31;2.30;;;2.10;;
15356;SDS011;7778;48.792;9.260;2022-07-29T07:18:17;1.80;;;1.63;;
15356;SDS011;7778;48.792;9.260;2022-07-29T07:21:04;4.28;;;2.20;;
15356;SDS011;7778;48.792;9.260;2022-07-29T07:23:50;2.55;;;1.90;;
15356;SDS011;7778;48.792;9.260;2022-07-29T07:26:36;3.28;;;2.03;;
15356;SDS011;7778;48.792;9.260;2022-07-29T07:29:22;2.28;;;1.90;;
15356;SDS011;7778;48.792;9.260;2022-07-29T07:32:08;3.63;;;2.25;;
15356;SDS011;7778;48.792;9.260;2022-07-29T07:34:54;4.55;;;2.60;;
15356;SDS011;7778;48.792;9.260;2022-07-29T07:37:41;4.70;;;2.28;;
15356;SDS011;7778;48.792;9.260;2022-07-29T07:40:27;2.72;;;2.53;;
15356;SDS011;7778;48.792;9.260;2022-07-29T07:43:13;4.40;;;2.53;;
15356;SDS011;7778;48.792;9.260;2022-07-29T07:45:59;5.40;;;2.00;;
15356;SDS011;7778;48.792;9.260;2022-07-29T07:48:44;3.78;;;2.63;;
15356;SDS011;7778;48.792;9.260;2022-07-29T07:51:30;2.95;;;2.33;;
15356;SDS011;7778;48.792;9.260;2022-07-29T07:54:17;4.18;;;2.30;;
15356;SDS011;7778;48.792;9.260;2022-07-29T07:57:02;2.63;;;2.25;;
15356;SDS011;7778;48.792;9.260;2022-07-29T07:59:48;3.53;;;2.70;;
15356;SDS011;7778;48.792;9.260;2022-07-29T08:02:34;3.65;;;2.30;;
15356;SDS011;7778;48.792;9.260;2022-07-29T08:05:20;2.22;;;2.03;;
15356;SDS011;7778;48.792;9.260;2022-07-29T08:08:05;3.40;;;1.92;;
15356;SDS011;7778;48.792;9.260;2022-07-29T08:10:53;3.38;;;2.40;;
15356;SDS011;7778;48.792;9.260;2022-07-29T08:13:39;2.58;;;2.35;;
15356;SDS011;7778;48.792;9.260;2022-07-29T08:16:25;2.17;;;1.80;;
15356;SDS011;7778;48.792;9.260;2022-07-29T08:19:11;4.03;;;2.78;;
15356;SDS011;7778;48.792;9.260;2022-07-29T08:21:58;4.03;;;2.35;;
15356;SDS011;7778;48.792;9.260;2022-07-29T08:24:44;3.72;;;2.63;;
15356;SDS011;7778;48.792;9.260;2022-07-29T08:27:37;3.63;;;2.10;;
15356;SDS011;7778;48.792;9.260;2022-07-29T08:30:22;2.60;;;2.38;;
15356;SDS011;7778;48.792;9.260;2022-07-29T08:33:08;4.57;;;2.50;;
15356;SDS011;7778;48.792;9.260;2022-07-29T08:35:54;2.80;;;2.28;;
15356;SDS011;7778;48.792;9.260;2022-07-29T08:38:43;3.10;;;2.60;;
15356;SDS011;7778;48.792;9.260;2022-07-29T08:41:30;3.50;;;2.50;;
15356;SDS011;7778;48.792;9.260;2022-07-29T08:44:17;3.00;;;2.38;;
15356;SDS011;7778;48.792;9.260;2022-07-29T08:47:05;2.80;;;2.40;;
15356;SDS011;7778;48.792;9.260;2022-07-29T08:49:51;2.97;;;2.28;;
15356;SDS011;7778;48.792;9.260;2022-07-29T08:52:37;3.60;;;2.75;;
15356;SDS011;7778;48.792;9.260;2022-07-29T08:55:24;2.72;;;2.42;;
15356;SDS011;7778;48.792;9.260;2022-07-29T08:58:11;3.80;;;2.88;;
15356;SDS011;7778;48.792;9.260;2022-07-29T09:00:59;2.83;;;2.50;;
15356;SDS011;7778;48.792;9.260;2022-07-29T09:03:48;3.25;;;2.53;;
15356;SDS011;7778;48.792;9.260;2022-07-29T09:06:36;3.47;;;2.80;;
15356;SDS011;7778;48.792;9.260;2022-07-29T09:09:28;3.03;;;2.58;;
15356;SDS011;7778;48.792;9.260;2022-07-29T09:12:14;2.92;;;2.63;;
15356;SDS011;7778;48.792;9.260;2022-07-29T09:15:00;2.72;;;2.53;;
15356;SDS011;7778;48.792;9.260;2022-07-29T09:17:47;2.90;;;2.53;;
15356;SDS011;7778;48.792;9.260;2022-07-29T09:20:34;4.15;;;2.90;;
15356;SDS011;7778;48.792;9.260;2022-07-29T09:23:38;4.90;;;3.03;;
15356;SDS011;7778;48.792;9.260;2022-07-29T09:26:27;2.90;;;2.60;;
15356;SDS011;7778;48.792;9.260;2022-07-29T09:29:15;3.63;;;2.83;;
15356;SDS011;7778;48.792;9.260;2022-07-29T09:32:03;4.88;;;2.83;;
15356;SDS011;7778;48.792;9.260;2022-07-29T09:38:10;3.92;;;3.00;;
15356;SDS011;7778;48.792;9.260;2022-07-29T09:40:57;4.40;;;2.30;;
15356;SDS011;7778;48.792;9.260;2022-07-29T09:43:52;3.22;;;2.30;;
15356;SDS011;7778;48.792;9.260;2022-07-29T09:46:40;3.58;;;2.60;;
15356;SDS011;7778;48.792;9.260;2022-07-29T09:49:50;3.67;;;2.95;;
15356;SDS011;7778;48.792;9.260;2022-07-29T09:52:45;3.83;;;2.85;;
15356;SDS011;7778;48.792;9.260;2022-07-29T09:55:32;4.57;;;2.72;;
15356;SDS011;7778;48.792;9.260;2022-07-29T09:58:31;4.20;;;2.67;;
15356;SDS011;7778;48.792;9.260;2022-07-29T10:01:26;4.28;;;2.75;;
15356;SDS011;7778;48.792;9.260;2022-07-29T10:04:13;3.92;;;2.58;;
15356;SDS011;7778;48.792;9.260;2022-07-29T10:06:59;4.70;;;3.20;;
15356;SDS011;7778;48.792;9.260;2022-07-29T10:09:56;3.70;;;2.75;;
15356;SDS011;7778;48.792;9.260;2022-07-29T10:12:49;6.50;;;2.95;;
15356;SDS011;7778;48.792;9.260;2022-07-29T10:15:38;4.38;;;3.00;;
15356;SDS011;7778;48.792;9.260;2022-07-29T10:18:27;3.38;;;3.08;;
15356;SDS011;7778;48.792;9.260;2022-07-29T10:21:14;3.47;;;3.17;;
15356;SDS011;7778;48.792;9.260;2022-07-29T10:24:00;4.50;;;2.97;;
15356;SDS011;7778;48.792;9.260;2022-07-29T10:26:47;5.47;;;3.38;;
15356;SDS011;7778;48.792;9.260;2022-07-29T10:29:34;5.10;;;2.92;;
15356;SDS011;7778;48.792;9.260;2022-07-29T10:32:33;3.25;;;2.95;;
15356;SDS011;7778;48.792;9.260;2022-07-29T10:35:33;3.38;;;3.03;;
15356;SDS011;7778;48.792;9.260;2022-07-29T10:38:42;3.38;;;2.88;;
15356;SDS011;7778;48.792;9.260;2022-07-29T10:44:53;3.35;;;2.80;;
15356;SDS011;7778;48.792;9.260;2022-07-29T10:47:39;4.43;;;3.00;;
15356;SDS011;7778;48.792;9.260;2022-07-29T10:50:26;3.53;;;2.90;;
15356;SDS011;7778;48.792;9.260;2022-07-29T10:53:11;7.95;;;3.53;;
15356;SDS011;7778;48.792;9.260;2022-07-29T10:55:57;8.13;;;3.67;;
15356;SDS011;7778;48.792;9.260;2022-07-29T10:58:45;7.65;;;3.50;;
15356;SDS011;7778;48.792;9.260;2022-07-29T11:05:40;9.27;;;4.50;;
15356;SDS011;7778;48.792;9.260;2022-07-29T11:08:38;5.40;;;4.05;;
15356;SDS011;7778;48.792;9.260;2022-07-29T11:14:33;6.28;;;4.20;;
15356;SDS011;7778;48.792;9.260;2022-07-29T11:20:54;9.55;;;5.15;;
15356;SDS011;7778;48.792;9.260;2022-07-29T11:23:40;7.00;;;5.45;;
15356;SDS011;7778;48.792;9.260;2022-07-29T11:26:27;7.85;;;5.07;;
15356;SDS011;7778;48.792;9.260;2022-07-29T11:29:16;6.68;;;4.95;;
15356;SDS011;7778;48.792;9.260;2022-07-29T11:32:11;7.20;;;5.10;;
15356;SDS011;7778;48.792;9.260;2022-07-29T11:35:12;9.15;;;4.80;;
15356;SDS011;7778;48.792;9.260;2022-07-29T11:41:21;2.65;;;2.35;;
15356;SDS011;7778;48.792;9.260;2022-07-29T11:44:09;3.92;;;3.00;;
15356;SDS011;7778;48.792;9.260;2022-07-29T11:46:54;4.72;;;2.70;;
15356;SDS011;7778;48.792;9.260;2022-07-29T11:49:42;3.42;;;2.40;;
15356;SDS011;7778;48.792;9.260;2022-07-29T11:52:32;6.53;;;2.75;;
15356;SDS011;7778;48.792;9.260;2022-07-29T11:55:21;3.17;;;2.55;;
15356;SDS011;7778;48.792;9.260;2022-07-29T11:58:08;7.35;;;2.95;;
15356;SDS011;7778;48.792;9.260;2022-07-29T12:00:59;3.95;;;2.70;;
15356;SDS011;7778;48.792;9.260;2022-07-29T12:03:46;4.18;;;2.90;;
15356;SDS011;7778;48.792;9.260;2022-07-29T12:06:35;3.25;;;2.63;;
15356;SDS011;7778;48.792;9.260;2022-07-29T12:09:21;3.75;;;2.40;;
15356;SDS011;7778;48.792;9.260;2022-07-29T12:12:09;4.20;;;2.45;;
15356;SDS011;7778;48.792;9.260;2022-07-29T12:14:55;4.85;;;2.47;;
15356;SDS011;7778;48.792;9.260;2022-07-29T12:17:42;3.35;;;2.53;;
15356;SDS011;7778;48.792;9.260;2022-07-29T12:20:28;4.30;;;2.10;;
15356;SDS011;7778;48.792;9.260;2022-07-29T12:23:18;2.38;;;2.10;;
15356;SDS011;7778;48.792;9.260;2022-07-29T12:26:05;4.45;;;2.20;;
15356;SDS011;7778;48.792;9.260;2022-07-29T12:28:51;2.78;;;2.00;;
15356;SDS011;7778;48.792;9.260;2022-07-29T12:31:38;3.00;;;2.00;;
15356;SDS011;7778;48.792;9.260;2022-07-29T12:34:26;1.83;;;1.70;;
15356;SDS011;7778;48.792;9.260;2022-07-29T12:37:14;3.67;;;1.90;;
15356;SDS011;7778;48.792;9.260;2022-07-29T12:40:02;2.70;;;1.83;;
15356;SDS011;7778;48.792;9.260;2022-07-29T12:43:11;2.08;;;1.88;;
15356;SDS011;7778;48.792;9.260;2022-07-29T12:46:10;4.22;;;2.17;;
15356;SDS011;7778;48.792;9.260;2022-07-29T12:48:58;2.17;;;1.83;;
15356;SDS011;7778;48.792;9.260;2022-07-29T12:51:44;3.92;;;2.05;;
15356;SDS011;7778;48.792;9.260;2022-07-29T12:54:31;2.80;;;2.00;;
15356;SDS011;7778;48.792;9.260;2022-07-29T12:57:19;3.42;;;1.98;;
15356;SDS011;7778;48.792;9.260;2022-07-29T13:00:07;2.95;;;2.15;;
15356;SDS011;7778;48.792;9.260;2022-07-29T13:02:57;4.90;;;2.40;;
15356;SDS011;7778;48.792;9.260;2022-07-29T13:05:45;4.00;;;1.92;;
15356;SDS011;7778;48.792;9.260;2022-07-29T13:08:31;4.38;;;2.20;;
15356;SDS011;7778;48.792;9.260;2022-07-29T13:11:27;3.55;;;2.25;;
15356;SDS011;7778;48.792;9.260;2022-07-29T13:14:29;2.83;;;2.63;;
15356;SDS011;7778;48.792;9.260;2022-07-29T13:17:17;3.00;;;2.30;;
15356;SDS011;7778;48.792;9.260;2022-07-29T13:20:07;3.50;;;2.30;;
15356;SDS011;7778;48.792;9.260;2022-07-29T13:22:57;2.92;;;2.53;;
15356;SDS011;7778;48.792;9.260;2022-07-29T13:25:44;3.70;;;2.40;;
15356;SDS011;7778;48.792;9.260;2022-07-29T13:28:30;3.50;;;2.50;;
15356;SDS011;7778;48.792;9.260;2022-07-29T13:31:18;2.47;;;2.22;;
15356;SDS011;7778;48.792;9.260;2022-07-29T13:34:04;5.57;;;3.10;;
15356;SDS011;7778;48.792;9.260;2022-07-29T13:36:51;4.70;;;3.03;;
15356;SDS011;7778;48.792;9.260;2022-07-29T13:39:37;3.75;;;3.08;;
15356;SDS011;7778;48.792;9.260;2022-07-29T13:42:24;4.65;;;3.70;;
15356;SDS011;7778;48.792;9.260;2022-07-29T13:45:11;5.70;;;3.42;;
15356;SDS011;7778;48.792;9.260;2022-07-29T13:48:00;4.47;;;3.33;;
15356;SDS011;7778;48.792;9.260;2022-07-29T13:50:46;5.15;;;3.97;;
15356;SDS011;7778;48.792;9.260;2022-07-29T13:53:32;5.95;;;3.92;;
15356;SDS011;7778;48.792;9.260;2022-07-29T13:56:18;5.38;;;3.30;;
15356;SDS011;7778;48.792;9.260;2022-07-29T13:59:03;5.20;;;4.15;;
15356;SDS011;7778;48.792;9.260;2022-07-29T14:01:49;5.15;;;3.55;;
15356;SDS011;7778;48.792;9.260;2022-07-29T14:04:36;7.65;;;4.18;;
15356;SDS011;7778;48.792;9.260;2022-07-29T14:07:22;5.20;;;3.95;;
15356;SDS011;7778;48.792;9.260;2022-07-29T14:10:08;6.15;;;3.67;;
15356;SDS011;7778;48.792;9.260;2022-07-29T14:12:54;4.63;;;4.00;;
15356;SDS011;7778;48.792;9.260;2022-07-29T14:15:40;5.55;;;3.58;;
15356;SDS011;7778;48.792;9.260;2022-07-29T14:18:25;6.22;;;3.35;;
15356;SDS011;7778;48.792;9.260;2022-07-29T14:21:13;4.35;;;3.60;;
15356;SDS011;7778;48.792;9.260;2022-07-29T14:23:58;6.35;;;3.88;;
15356;SDS011;7778;48.792;9.260;2022-07-29T14:26:44;6.10;;;4.00;;
15356;SDS011;7778;48.792;9.260;2022-07-29T14:29:29;6.05;;;4.43;;
15356;SDS011;7778;48.792;9.260;2022-07-29T14:32:16;5.65;;;3.85;;
15356;SDS011;7778;48.792;9.260;2022-07-29T14:35:01;6.03;;;4.00;;
15356;SDS011;7778;48.792;9.260;2022-07-29T14:37:49;7.18;;;5.45;;
15356;SDS011;7778;48.792;9.260;2022-07-29T14:40:35;9.45;;;5.38;;
15356;SDS011;7778;48.792;9.260;2022-07-29T14:43:21;9.60;;;5.32;;
15356;SDS011;7778;48.792;9.260;2022-07-29T14:46:07;7.57;;;5.38;;
15356;SDS011;7778;48.792;9.260;2022-07-29T14:48:52;9.55;;;5.45;;
15356;SDS011;7778;48.792;9.260;2022-07-29T14:51:38;8.23;;;4.78;;
15356;SDS011;7778;48.792;9.260;2022-07-29T14:54:25;7.97;;;5.05;;
15356;SDS011;7778;48.792;9.260;2022-07-29T14:57:11;6.93;;;4.63;;
15356;SDS011;7778;48.792;9.260;2022-07-29T14:59:57;6.40;;;5.15;;
15356;SDS011;7778;48.792;9.260;2022-07-29T15:02:42;8.35;;;4.72;;
15356;SDS011;7778;48.792;9.260;2022-07-29T15:05:28;5.47;;;3.97;;
15356;SDS011;7778;48.792;9.260;2022-07-29T15:08:14;7.57;;;4.35;;
15356;SDS011;7778;48.792;9.260;2022-07-29T15:11:01;7.25;;;4.70;;
15356;SDS011;7778;48.792;9.260;2022-07-29T15:13:47;6.22;;;4.80;;
15356;SDS011;7778;48.792;9.260;2022-07-29T15:16:35;8.00;;;4.55;;
15356;SDS011;7778;48.792;9.260;2022-07-29T15:19:20;6.07;;;3.65;;
15356;SDS011;7778;48.792;9.260;2022-07-29T15:22:06;5.60;;;4.20;;
15356;SDS011;7778;48.792;9.260;2022-07-29T15:24:51;6.25;;;4.15;;
15356;SDS011;7778;48.792;9.260;2022-07-29T15:27:38;5.65;;;4.40;;
15356;SDS011;7778;48.792;9.260;2022-07-29T15:30:24;5.75;;;4.68;;
15356;SDS011;7778;48.792;9.260;2022-07-29T15:33:10;6.10;;;4.20;;
15356;SDS011;7778;48.792;9.260;2022-07-29T15:35:56;6.75;;;4.85;;
15356;SDS011;7778;48.792;9.260;2022-07-29T15:38:42;5.38;;;3.85;;
15356;SDS011;7778;48.792;9.260;2022-07-29T15:41:28;5.95;;;4.45;;
15356;SDS011;7778;48.792;9.260;2022-07-29T15:44:16;7.43;;;4.28;;
15356;SDS011;7778;48.792;9.260;2022-07-29T15:47:01;5.68;;;4.00;;
15356;SDS011;7778;48.792;9.260;2022-07-29T15:49:47;7.75;;;4.45;;
15356;SDS011;7778;48.792;9.260;2022-07-29T15:52:33;6.60;;;4.68;;
15356;SDS011;7778;48.792;9.260;2022-07-29T15:55:18;6.60;;;4.15;;
15356;SDS011;7778;48.792;9.260;2022-07-29T15:58:04;5.43;;;4.05;;
15356;SDS011;7778;48.792;9.260;2022-07-29T16:00:51;6.95;;;4.40;;
15356;SDS011;7778;48.792;9.260;2022-07-29T16:03:37;5.82;;;4.45;;
15356;SDS011;7778;48.792;9.260;2022-07-29T16:06:23;8.05;;;4.28;;
15356;SDS011;7778;48.792;9.260;2022-07-29T16:09:08;6.80;;;3.95;;
15356;SDS011;7778;48.792;9.260;2022-07-29T16:11:55;7.45;;;3.80;;
15356;SDS011;7778;48.792;9.260;2022-07-29T16:14:40;5.22;;;3.78;;
15356;SDS011;7778;48.792;9.260;2022-07-29T16:17:28;5.18;;;4.07;;
15356;SDS011;7778;48.792;9.260;2022-07-29T16:20:14;6.35;;;4.05;;
15356;SDS011;7778;48.792;9.260;2022-07-29T16:23:00;4.05;;;3.65;;
15356;SDS011;7778;48.792;9.260;2022-07-29T16:25:46;4.68;;;3.75;;
15356;SDS011;7778;48.792;9.260;2022-07-29T16:28:32;6.43;;;4.35;;
15356;SDS011;7778;48.792;9.260;2022-07-29T16:31:18;5.78;;;4.47;;
15356;SDS011;7778;48.792;9.260;2022-07-29T16:34:07;7.50;;;4.88;;
15356;SDS011;7778;48.792;9.260;2022-07-29T16:36:53;6.20;;;3.95;;
15356;SDS011;7778;48.792;9.260;2022-07-29T16:39:38;4.28;;;3.88;;
15356;SDS011;7778;48.792;9.260;2022-07-29T16:42:24;6.60;;;4.10;;
15356;SDS011;7778;48.792;9.260;2022-07-29T16:45:10;5.82;;;4.13;;
15356;SDS011;7778;48.792;9.260;2022-07-29T16:47:55;6.30;;;4.95;;
15356;SDS011;7778;48.792;9.260;2022-07-29T16:50:43;6.25;;;4.40;;
15356;SDS011;7778;48.792;9.260;2022-07-29T16:53:28;4.93;;;4.03;;
15356;SDS011;7778;48.792;9.260;2022-07-29T16:56:14;5.85;;;4.35;;
15356;SDS011;7778;48.792;9.260;2022-07-29T16:59:00;6.13;;;4.60;;
15356;SDS011;7778;48.792;9.260;2022-07-29T17:01:45;6.30;;;4.43;;
15356;SDS011;7778;48.792;9.260;2022-07-29T17:04:31;4.30;;;3.90;;
15356;SDS011;7778;48.792;9.260;2022-07-29T17:07:19;8.85;;;4.60;;
15356;SDS011;7778;48.792;9.260;2022-07-29T17:10:05;7.50;;;4.47;;
15356;SDS011;7778;48.792;9.260;2022-07-29T17:12:52;6.03;;;3.88;;
15356;SDS011;7778;48.792;9.260;2022-07-29T17:15:38;7.28;;;3.72;;
15356;SDS011;7778;48.792;9.260;2022-07-29T17:18:25;4.97;;;3.90;;
15356;SDS011;7778;48.792;9.260;2022-07-29T17:21:10;4.80;;;4.07;;
15356;SDS011;7778;48.792;9.260;2022-07-29T17:23:57;6.55;;;4.13;;
15356;SDS011;7778;48.792;9.260;2022-07-29T17:26:43;10.85;;;4.38;;